Time;durP1;ratioP1;P1;durP2;ratioP2;P2;SDS_P1;SDS_P2;PMS_P1;PMS_P2;Temp;Humidity;BMP_temperature;BMP_pressure;BME280_temperature;BME280_humidity;BME280_pressure;Samples;Min_cycle;Max_cycle;Signal;HPM_P1;HPM_P2
2023/11/06 00:02:42;;;;;;;14.68;3.03;;;9.10;92.20;;;;;;6287432;28;20057;-90
2023/11/06 00:05:44;;;;;;;15.65;3.25;;;9.10;92.50;;;;;;6282986;28;20068;-90
2023/11/06 00:08:46;;;;;;;12.27;2.67;;;9.00;92.30;;;;;;6262187;28;20546;-92
2023/11/06 00:11:47;;;;;;;12.52;2.75;;;9.00;92.10;;;;;;6281362;28;20064;-91
2023/11/06 00:14:49;;;;;;;13.27;3.17;;;9.00;92.50;;;;;;6282489;28;20055;-89
2023/11/06 00:17:51;;;;;;;11.95;2.85;;;9.00;92.50;;;;;;6289480;28;20401;-91
2023/11/06 00:20:52;;;;;;;12.13;2.72;;;8.80;93.10;;;;;;6260505;28;20056;-92
2023/11/06 00:23:54;;;;;;;15.10;3.33;;;8.80;93.30;;;;;;6276987;28;20057;-90
2023/11/06 00:26:56;;;;;;;13.57;2.78;;;8.80;93.00;;;;;;6278533;28;20053;-89
2023/11/06 00:29:58;;;;;;;13.50;2.80;;;8.80;93.20;;;;;;6299906;28;20041;-91
2023/11/06 00:32:59;;;;;;;12.77;3.17;;;8.70;93.40;;;;;;6300635;28;20143;-89
2023/11/06 00:36:01;;;;;;;14.25;3.15;;;8.60;93.50;;;;;;6300897;28;20045;-88
2023/11/06 00:39:03;;;;;;;15.00;3.20;;;8.60;94.00;;;;;;6260979;28;20044;-90
2023/11/06 00:42:04;;;;;;;16.90;3.53;;;9.10;94.20;;;;;;6279542;28;20041;-89
2023/11/06 00:45:06;;;;;;;12.20;3.20;;;8.70;94.00;;;;;;6275761;28;20053;-89
2023/11/06 00:48:07;;;;;;;12.35;3.05;;;8.80;94.10;;;;;;6278149;28;20053;-89
2023/11/06 00:51:09;;;;;;;21.48;3.78;;;8.70;94.10;;;;;;6277977;28;20045;-91
2023/11/06 00:54:11;;;;;;;16.17;3.45;;;8.60;94.40;;;;;;6278257;28;20049;-90
2023/11/06 00:57:13;;;;;;;10.23;2.92;;;8.60;94.40;;;;;;6259903;28;20056;-88
2023/11/06 01:00:16;;;;;;;13.70;3.60;;;8.70;94.40;;;;;;6275716;28;20052;-90
2023/11/06 01:03:17;;;;;;;12.05;2.78;;;8.60;94.40;;;;;;6277648;28;20423;-89
2023/11/06 01:06:19;;;;;;;13.32;2.90;;;8.60;94.60;;;;;;6283400;28;20143;-84
2023/11/06 01:09:21;;;;;;;10.07;3.33;;;8.60;94.80;;;;;;6280182;28;20045;-90
2023/11/06 01:12:22;;;;;;;13.10;3.10;;;8.60;94.40;;;;;;6281764;28;20523;-91
2023/11/06 01:15:24;;;;;;;14.13;3.58;;;8.60;95.00;;;;;;6275280;28;20045;-87
2023/11/06 01:18:26;;;;;;;13.95;3.65;;;8.70;94.90;;;;;;6274070;28;20063;-87
2023/11/06 01:21:27;;;;;;;18.73;3.70;;;8.60;94.80;;;;;;6276832;28;20053;-89
2023/11/06 01:24:29;;;;;;;19.15;3.80;;;9.10;95.00;;;;;;6276411;28;20045;-87
2023/11/06 01:27:31;;;;;;;15.18;3.38;;;8.60;94.60;;;;;;6259128;28;20065;-89
2023/11/06 01:30:32;;;;;;;17.20;3.70;;;8.70;95.10;;;;;;6271721;28;20051;-88
2023/11/06 01:33:34;;;;;;;22.02;3.83;;;8.50;95.30;;;;;;6277017;28;20056;-87
2023/11/06 01:36:36;;;;;;;13.90;3.63;;;8.50;95.30;;;;;;6277054;28;20489;-91
2023/11/06 01:39:37;;;;;;;14.25;3.70;;;8.60;95.40;;;;;;6275477;28;20053;-90
2023/11/06 01:42:39;;;;;;;19.48;3.72;;;8.60;95.10;;;;;;6277022;28;20048;-91
2023/11/06 01:45:44;;;;;;;12.43;3.47;;;8.60;94.80;;;;;;6275192;28;20392;-90
2023/11/06 01:48:45;;;;;;;15.90;3.55;;;8.60;95.00;;;;;;6276746;28;20805;-89
2023/11/06 01:51:47;;;;;;;16.10;3.92;;;8.60;94.90;;;;;;6276845;28;20049;-90
2023/11/06 01:54:49;;;;;;;15.50;3.60;;;8.60;95.00;;;;;;6275028;28;20049;-90
2023/11/06 01:57:51;;;;;;;12.85;3.47;;;8.60;95.00;;;;;;6259519;28;20060;-90
2023/11/06 02:00:52;;;;;;;16.50;3.65;;;9.10;94.60;;;;;;6255982;28;20052;-90
2023/11/06 02:03:54;;;;;;;19.10;4.65;;;8.60;94.40;;;;;;6276480;28;20052;-89
2023/11/06 02:06:56;;;;;;;15.43;3.78;;;8.70;94.30;;;;;;6276162;28;20049;-90
2023/11/06 02:09:58;;;;;;;17.88;3.90;;;8.60;94.30;;;;;;6276089;28;20045;-90
2023/11/06 02:12:59;;;;;;;20.60;4.18;;;8.70;94.40;;;;;;6274985;28;20049;-90
2023/11/06 02:16:01;;;;;;;18.13;4.05;;;8.50;94.60;;;;;;6285171;28;20412;-88
2023/11/06 02:19:03;;;;;;;13.65;3.47;;;8.60;94.80;;;;;;6252114;28;20056;-90
2023/11/06 02:22:04;;;;;;;15.48;3.85;;;8.40;95.00;;;;;;6274271;28;20136;-88
2023/11/06 02:25:06;;;;;;;15.48;3.28;;;8.40;95.20;;;;;;6276617;28;20056;-89
2023/11/06 02:28:08;;;;;;;17.92;3.95;;;8.40;95.50;;;;;;6259519;28;20128;-88
2023/11/06 02:31:09;;;;;;;16.92;3.50;;;8.40;95.00;;;;;;6272602;28;20048;-90
2023/11/06 02:34:11;;;;;;;14.68;3.40;;;8.40;95.60;;;;;;6251402;28;20061;-90
2023/11/06 02:37:13;;;;;;;19.30;3.83;;;8.30;95.40;;;;;;6274922;28;20132;-88
2023/11/06 02:40:14;;;;;;;11.93;3.38;;;8.30;95.60;;;;;;6265377;28;20059;-89
2023/11/06 02:43:16;;;;;;;15.23;2.95;;;8.60;96.20;;;;;;6281726;28;20119;-81
2023/11/06 02:46:17;;;;;;;13.57;3.25;;;8.40;95.80;;;;;;6300937;28;20062;-90
2023/11/06 02:49:19;;;;;;;13.98;3.03;;;8.30;96.20;;;;;;6300281;28;20056;-88
2023/11/06 02:52:21;;;;;;;19.60;3.17;;;8.30;96.60;;;;;;6297184;28;20057;-88
2023/11/06 02:55:22;;;;;;;19.02;2.97;;;8.70;97.20;;;;;;6293296;28;20041;-86
2023/11/06 02:58:24;;;;;;;19.25;3.67;;;8.20;97.20;;;;;;6289088;28;20065;-83
2023/11/06 03:01:26;;;;;;;13.15;2.75;;;8.20;97.00;;;;;;6294368;28;20045;-86
2023/11/06 03:04:28;;;;;;;17.08;3.63;;;8.20;97.20;;;;;;6298276;28;20072;-85
2023/11/06 03:07:30;;;;;;;17.48;3.17;;;8.30;97.30;;;;;;6292420;28;20117;-86
2023/11/06 03:10:31;;;;;;;18.15;3.60;;;8.20;97.60;;;;;;6292505;28;20056;-89
2023/11/06 03:13:33;;;;;;;17.33;3.22;;;8.20;97.60;;;;;;6273279;28;20045;-88
2023/11/06 03:16:35;;;;;;;19.35;3.92;;;8.20;97.70;;;;;;6274320;28;20049;-89
2023/11/06 03:19:36;;;;;;;13.60;3.63;;;8.10;97.90;;;;;;6256576;28;20056;-86
2023/11/06 03:22:38;;;;;;;14.50;3.38;;;8.10;97.70;;;;;;6276879;28;20064;-90
2023/11/06 03:25:39;;;;;;;14.95;3.53;;;8.10;97.90;;;;;;6287371;28;20056;-89
2023/11/06 03:28:41;;;;;;;23.98;4.25;;;8.10;98.60;;;;;;6258325;28;20056;-90
2023/11/06 03:31:43;;;;;;;21.88;5.30;;;8.10;98.50;;;;;;6276229;28;20048;-90
2023/11/06 03:34:45;;;;;;;20.08;5.68;;;8.20;98.60;;;;;;6275431;28;20048;-89
2023/11/06 03:37:47;;;;;;;24.73;5.70;;;8.20;98.40;;;;;;6256812;28;20051;-89
2023/11/06 03:40:48;;;;;;;23.67;5.78;;;8.20;98.60;;;;;;6274559;28;20397;-88
2023/11/06 03:43:51;;;;;;;19.73;4.72;;;8.20;98.30;;;;;;6271240;28;20049;-89
2023/11/06 03:46:54;;;;;;;21.67;4.88;;;8.10;98.60;;;;;;6273842;28;20053;-88
2023/11/06 03:49:55;;;;;;;20.00;4.68;;;8.20;98.80;;;;;;6273872;28;20128;-88
2023/11/06 03:52:57;;;;;;;16.27;3.38;;;8.20;98.50;;;;;;6279073;28;20191;-90
2023/11/06 03:55:59;;;;;;;15.32;3.45;;;8.30;98.90;;;;;;6257445;28;20500;-90
2023/11/06 03:59:00;;;;;;;18.00;3.80;;;8.30;98.50;;;;;;6272008;28;20045;-87
2023/11/06 04:02:02;;;;;;;19.05;3.85;;;8.30;98.90;;;;;;6275604;28;20400;-90
2023/11/06 04:05:04;;;;;;;20.15;3.88;;;8.30;98.80;;;;;;6279487;28;20191;-89
2023/11/06 04:08:05;;;;;;;17.23;4.10;;;8.40;98.70;;;;;;6277884;28;20044;-87
2023/11/06 04:11:07;;;;;;;11.80;2.92;;;8.40;98.20;;;;;;6280434;28;20511;-90
2023/11/06 04:14:09;;;;;;;21.02;3.90;;;8.40;98.60;;;;;;6276263;28;20053;-91
2023/11/06 04:17:11;;;;;;;14.73;3.63;;;8.40;98.70;;;;;;6278841;28;20134;-90
2023/11/06 04:20:13;;;;;;;12.63;3.67;;;8.40;99.00;;;;;;6280970;28;20053;-89
2023/11/06 04:23:15;;;;;;;16.50;3.47;;;8.30;99.00;;;;;;6262807;28;20041;-88
2023/11/06 04:26:17;;;;;;;15.18;3.72;;;8.40;99.20;;;;;;6278865;28;20057;-89
2023/11/06 04:29:19;;;;;;;16.05;3.58;;;8.40;99.10;;;;;;6275452;28;20134;-89
2023/11/06 04:32:20;;;;;;;20.33;4.38;;;8.40;99.30;;;;;;6286445;28;20041;-89
2023/11/06 04:35:22;;;;;;;17.33;3.42;;;8.40;99.60;;;;;;6287196;28;20057;-90
2023/11/06 04:38:24;;;;;;;14.45;3.75;;;8.50;99.50;;;;;;6280007;28;20052;-88
2023/11/06 04:41:25;;;;;;;11.88;3.42;;;8.40;98.90;;;;;;6278157;28;20500;-88
2023/11/06 04:44:27;;;;;;;17.10;4.35;;;8.50;99.30;;;;;;6274460;28;20132;-88
2023/11/06 04:47:29;;;;;;;16.45;3.30;;;8.40;99.20;;;;;;6277054;28;20140;-90
2023/11/06 04:50:31;;;;;;;15.23;3.45;;;8.50;99.50;;;;;;6278801;28;20056;-90
2023/11/06 04:53:33;;;;;;;16.52;3.20;;;8.50;99.40;;;;;;6279259;28;20166;-91
2023/11/06 04:56:35;;;;;;;15.88;3.20;;;8.40;99.40;;;;;;6279554;28;20057;-91
2023/11/06 04:59:37;;;;;;;18.27;3.25;;;8.50;99.20;;;;;;6255637;28;20037;-91
2023/11/06 05:02:39;;;;;;;15.60;3.75;;;8.50;99.20;;;;;;6278779;28;20055;-90
2023/11/06 05:05:40;;;;;;;15.65;3.20;;;8.60;98.80;;;;;;6276513;28;20041;-91
2023/11/06 05:08:42;;;;;;;15.43;3.15;;;8.60;99.00;;;;;;6260186;28;20182;-90
2023/11/06 05:11:44;;;;;;;17.50;3.40;;;8.40;99.20;;;;;;6259903;28;20045;-89
2023/11/06 05:14:46;;;;;;;14.70;3.35;;;8.40;99.00;;;;;;6274153;28;20049;-89
2023/11/06 05:17:47;;;;;;;13.25;2.72;;;8.40;99.10;;;;;;6276981;28;20049;-91
2023/11/06 05:20:49;;;;;;;16.58;3.30;;;8.40;99.60;;;;;;6278227;28;20140;-91
2023/11/06 05:23:51;;;;;;;14.30;2.97;;;8.40;99.30;;;;;;6260337;28;20049;-90
2023/11/06 05:26:53;;;;;;;15.02;2.58;;;8.40;99.50;;;;;;6259666;28;20056;-89
2023/11/06 05:29:55;;;;;;;11.65;2.17;;;8.30;99.20;;;;;;6271996;28;20044;-90
2023/11/06 05:32:57;;;;;;;10.25;2.15;;;8.30;99.30;;;;;;6277187;28;20056;-87
2023/11/06 05:35:59;;;;;;;11.10;1.83;;;8.40;98.50;;;;;;6277180;28;20171;-86
2023/11/06 05:39:01;;;;;;;13.48;1.88;;;8.50;97.70;;;;;;6276564;28;20056;-86
2023/11/06 05:42:02;;;;;;;11.55;1.83;;;8.60;97.30;;;;;;6267011;28;20045;-90
2023/11/06 05:45:05;;;;;;;8.23;1.42;;;8.50;97.20;;;;;;6254514;28;20507;-88
2023/11/06 05:48:06;;;;;;;6.45;1.23;;;8.50;96.90;;;;;;6276275;28;20052;-90
2023/11/06 05:51:08;;;;;;;10.43;1.90;;;8.50;96.80;;;;;;6276402;28;20412;-90
2023/11/06 05:54:10;;;;;;;10.13;1.38;;;8.50;96.60;;;;;;6276797;28;20056;-89
2023/11/06 05:57:12;;;;;;;6.22;1.30;;;8.50;96.60;;;;;;6273467;28;20061;-90
2023/11/06 06:00:15;;;;;;;6.95;1.55;;;8.40;96.70;;;;;;6274406;28;20060;-89
2023/11/06 06:03:17;;;;;;;7.65;1.35;;;8.30;97.00;;;;;;6276182;28;20045;-89
2023/11/06 06:06:18;;;;;;;7.03;1.55;;;8.40;97.40;;;;;;6270598;28;20063;-89
2023/11/06 06:09:21;;;;;;;7.85;1.52;;;8.40;97.10;;;;;;6272033;28;20052;-89
2023/11/06 06:12:23;;;;;;;7.85;1.33;;;8.30;97.50;;;;;;6254255;28;20069;-91
2023/11/06 06:15:24;;;;;;;12.63;1.70;;;8.20;97.70;;;;;;6269863;28;20045;-90
2023/11/06 06:18:26;;;;;;;9.30;1.40;;;8.20;98.20;;;;;;6273437;28;20468;-91
2023/11/06 06:21:28;;;;;;;9.45;1.48;;;8.20;98.10;;;;;;6271923;28;20084;-91
2023/11/06 06:24:29;;;;;;;16.35;1.92;;;8.20;98.10;;;;;;6274336;28;20060;-88
2023/11/06 06:27:31;;;;;;;9.52;1.73;;;8.10;98.20;;;;;;6257635;28;20056;-90
2023/11/06 06:30:33;;;;;;;9.30;1.77;;;8.00;98.90;;;;;;6256156;28;20052;-89
2023/11/06 06:33:34;;;;;;;8.30;1.52;;;7.90;99.50;;;;;;6273195;28;20048;-91
2023/11/06 06:36:36;;;;;;;12.35;1.67;;;7.90;99.70;;;;;;6274025;28;20049;-89
2023/11/06 06:39:37;;;;;;;11.38;1.85;;;7.90;99.50;;;;;;6273513;28;20053;-87
2023/11/06 06:42:39;;;;;;;9.27;1.67;;;7.80;99.80;;;;;;6273730;28;20046;-88
2023/11/06 06:45:41;;;;;;;9.80;1.65;;;7.80;99.80;;;;;;6270553;28;20048;-87
2023/11/06 06:48:42;;;;;;;9.07;1.58;;;7.80;99.90;;;;;;6278419;28;20049;-90
2023/11/06 06:51:44;;;;;;;8.15;1.50;;;7.80;99.90;;;;;;6286849;28;20052;-90
2023/11/06 06:54:46;;;;;;;9.10;1.95;;;7.70;99.90;;;;;;6275980;28;20049;-90
2023/11/06 06:57:50;;;;;;;9.80;1.70;;;7.80;99.90;;;;;;6274406;28;20135;-90
2023/11/06 07:00:51;;;;;;;10.68;1.90;;;7.70;99.90;;;;;;6272931;28;20057;-91
2023/11/06 07:03:54;;;;;;;9.65;1.70;;;7.70;99.90;;;;;;6251977;28;20045;-90
2023/11/06 07:06:56;;;;;;;6.05;1.50;;;7.70;99.90;;;;;;6275249;28;20049;-91
2023/11/06 07:09:58;;;;;;;8.00;1.67;;;7.70;99.90;;;;;;6276410;28;20081;-90
2023/11/06 07:12:59;;;;;;;7.22;1.75;;;7.60;99.90;;;;;;6274582;28;20503;-90
2023/11/06 07:16:01;;;;;;;9.95;1.88;;;7.60;99.90;;;;;;6274893;28;20118;-88
2023/11/06 07:19:03;;;;;;;10.13;1.80;;;7.60;99.90;;;;;;6233800;28;20062;-90
2023/11/06 07:22:05;;;;;;;6.88;1.60;;;7.60;99.90;;;;;;6273115;28;20048;-89
2023/11/06 07:25:06;;;;;;;7.95;1.63;;;7.70;99.90;;;;;;6275036;28;20051;-90
2023/11/06 07:28:08;;;;;;;7.50;1.77;;;7.80;99.90;;;;;;6274233;28;20064;-90
2023/11/06 07:31:10;;;;;;;8.82;1.52;;;7.70;99.90;;;;;;6280053;28;20053;-90
2023/11/06 07:34:13;;;;;;;7.95;1.65;;;7.70;99.90;;;;;;6265985;28;20078;-90
2023/11/06 07:37:14;;;;;;;9.98;1.70;;;7.80;99.90;;;;;;6271668;28;20055;-90
2023/11/06 07:40:16;;;;;;;7.32;1.48;;;7.80;99.90;;;;;;6260748;28;20183;-89
2023/11/06 07:43:18;;;;;;;12.38;2.08;;;7.80;99.90;;;;;;6257451;28;20056;-89
2023/11/06 07:46:19;;;;;;;5.97;1.25;;;7.90;99.90;;;;;;6276491;28;20045;-90
2023/11/06 07:49:21;;;;;;;5.38;1.25;;;8.00;99.90;;;;;;6274591;28;20496;-91
2023/11/06 07:52:23;;;;;;;9.00;1.70;;;8.10;99.90;;;;;;6255093;28;20400;-89
2023/11/06 07:55:25;;;;;;;7.80;1.67;;;8.20;99.90;;;;;;6274875;28;20056;-87
2023/11/06 07:58:26;;;;;;;8.20;2.03;;;8.20;99.90;;;;;;6258152;28;20052;-90
2023/11/06 08:01:28;;;;;;;9.35;1.63;;;8.20;99.70;;;;;;6268974;28;20056;-90
2023/11/06 08:04:29;;;;;;;9.52;1.77;;;8.30;99.40;;;;;;6261082;28;20053;-89
2023/11/06 08:07:31;;;;;;;6.53;1.25;;;8.40;99.20;;;;;;6277356;28;20060;-88
2023/11/06 08:10:35;;;;;;;8.85;2.03;;;8.40;99.10;;;;;;6276061;28;20782;-91
2023/11/06 08:13:37;;;;;;;7.30;1.45;;;8.50;99.00;;;;;;6256058;28;20037;-89
2023/11/06 08:16:39;;;;;;;8.60;1.70;;;8.60;98.90;;;;;;6258507;28;20053;-92
2023/11/06 08:19:45;;;;;;;11.00;1.63;;;8.60;98.50;;;;;;6249746;28;20456;-91
2023/11/06 08:22:46;;;;;;;5.55;1.63;;;8.80;98.30;;;;;;6267033;28;20049;-90
2023/11/06 08:25:48;;;;;;;5.90;1.40;;;8.70;97.80;;;;;;6273914;28;20492;-90
2023/11/06 08:28:50;;;;;;;8.00;1.70;;;8.90;97.90;;;;;;6278521;28;20076;-92
2023/11/06 08:31:52;;;;;;;3.80;1.20;;;8.80;97.80;;;;;;6257368;28;20063;-87
2023/11/06 08:34:53;;;;;;;8.02;1.80;;;8.90;98.00;;;;;;6258278;28;20492;-92
2023/11/06 08:37:55;;;;;;;8.23;1.20;;;9.00;97.80;;;;;;6261058;28;20045;-92
2023/11/06 08:40:57;;;;;;;15.15;2.28;;;9.00;97.00;;;;;;6277131;28;20052;-91
2023/11/06 08:44:00;;;;;;;7.22;1.58;;;9.10;97.20;;;;;;6274404;28;20045;-90
2023/11/06 08:47:03;;;;;;;6.18;1.13;;;9.30;96.40;;;;;;6277162;28;20155;-93
2023/11/06 08:50:04;;;;;;;5.13;1.10;;;10.00;96.70;;;;;;6281027;28;20045;-93
2023/11/06 08:53:06;;;;;;;4.47;1.05;;;10.70;91.60;;;;;;6286316;28;20045;-92
2023/11/06 08:56:08;;;;;;;8.10;1.83;;;10.70;90.80;;;;;;6285492;28;20060;-93
2023/11/06 08:59:10;;;;;;;6.45;1.40;;;11.30;90.00;;;;;;6255034;28;20045;-87
2023/11/06 09:02:12;;;;;;;7.32;1.30;;;11.80;78.20;;;;;;6278427;28;20051;-86
2023/11/06 09:05:14;;;;;;;10.45;1.60;;;12.40;75.70;;;;;;6277310;28;20134;-88
2023/11/06 09:08:18;;;;;;;5.32;1.10;;;12.90;53.20;;;;;;6263478;28;20060;-87
2023/11/06 09:11:20;;;;;;;3.35;1.10;;;13.60;75.90;;;;;;6258255;28;20045;-84
2023/11/06 09:14:22;;;;;;;4.45;1.00;;;14.10;41.80;;;;;;6269803;28;20056;-92
2023/11/06 09:17:23;;;;;;;6.28;1.33;;;14.70;9.80;;;;;;6276209;28;20135;-85
2023/11/06 09:20:25;;;;;;;6.25;1.42;;;14.90;1.00;;;;;;6259925;28;20053;-90
2023/11/06 09:23:27;;;;;;;4.82;1.20;;;15.20;1.00;;;;;;6275419;28;20151;-95
2023/11/06 09:26:29;;;;;;;5.30;1.17;;;15.10;1.00;;;;;;6256184;28;20060;-91
2023/11/06 09:29:30;;;;;;;5.43;1.75;;;15.20;1.00;;;;;;6257256;28;20178;-85
2023/11/06 09:32:32;;;;;;;5.88;1.30;;;15.40;1.00;;;;;;6258141;28;20128;-91
2023/11/06 09:35:34;;;;;;;5.63;1.52;;;15.60;1.00;;;;;;6250300;28;20100;-90
2023/11/06 09:38:36;;;;;;;10.80;1.55;;;15.60;1.00;;;;;;6254742;28;20507;-86
2023/11/06 09:41:38;;;;;;;7.32;1.42;;;15.80;1.00;;;;;;6257155;28;20143;-87
2023/11/06 09:44:39;;;;;;;4.68;1.40;;;15.90;1.00;;;;;;6256742;28;20049;-92
2023/11/06 09:47:41;;;;;;;7.60;1.50;;;16.20;1.00;;;;;;6258205;28;20049;-91
2023/11/06 09:50:43;;;;;;;9.13;1.35;;;16.20;1.00;;;;;;6257941;28;20056;-88
2023/11/06 09:53:45;;;;;;;8.30;1.58;;;16.20;1.00;;;;;;6272930;28;20056;-87
2023/11/06 09:56:47;;;;;;;6.68;1.38;;;16.00;1.00;;;;;;6258570;28;20068;-83
2023/11/06 09:59:48;;;;;;;8.73;1.45;;;16.60;1.00;;;;;;6267687;28;20061;-90
2023/11/06 10:02:52;;;;;;;6.28;1.60;;;17.00;1.00;;;;;;6254498;28;20488;-88
2023/11/06 10:05:54;;;;;;;7.45;1.60;;;17.30;1.00;;;;;;6274894;28;20040;-84
2023/11/06 10:08:57;;;;;;;7.72;1.63;;;17.20;1.00;;;;;;6255083;28;20060;-84
2023/11/06 10:11:59;;;;;;;7.60;1.60;;;17.10;1.00;;;;;;6272042;28;20045;-86
2023/11/06 10:15:01;;;;;;;7.82;1.40;;;17.30;1.00;;;;;;6252842;28;20090;-87
2023/11/06 10:18:04;;;;;;;6.28;1.70;;;17.40;1.00;;;;;;6274136;28;20534;-88
2023/11/06 10:21:06;;;;;;;8.48;1.30;;;17.60;1.00;;;;;;6273661;28;20102;-85
2023/11/06 10:24:07;;;;;;;10.23;1.80;;;17.80;1.00;;;;;;6272065;28;20053;-81
2023/11/06 10:27:09;;;;;;;7.22;1.80;;;17.50;1.00;;;;;;6249466;28;20045;-86
2023/11/06 10:30:13;;;;;;;6.18;1.45;;;17.40;1.00;;;;;;6265305;28;20514;-82
2023/11/06 10:33:15;;;;;;;5.22;1.92;;;17.40;1.00;;;;;;6230490;28;20049;-87
2023/11/06 10:36:17;;;;;;;9.55;2.10;;;18.00;1.00;;;;;;6244479;28;20049;-84
2023/11/06 10:39:19;;;;;;;8.20;1.35;;;17.80;1.00;;;;;;6250472;28;20516;-81
2023/11/06 10:42:24;;;;;;;4.65;1.40;;;17.60;1.00;;;;;;6269294;28;20091;-81
2023/11/06 10:45:29;;;;;;;8.73;1.73;;;17.30;1.00;;;;;;6260205;28;20060;-87
2023/11/06 10:48:31;;;;;;;7.90;1.48;;;17.50;1.00;;;;;;6257149;28;20167;-88
2023/11/06 10:51:33;;;;;;;6.15;1.90;;;17.30;1.00;;;;;;6251224;28;20175;-88
2023/11/06 10:54:36;;;;;;;7.82;1.50;;;17.00;1.00;;;;;;6247034;28;20057;-86
2023/11/06 10:57:37;;;;;;;9.73;2.20;;;17.60;1.00;;;;;;6247316;28;20536;-92
2023/11/06 11:00:40;;;;;;;8.68;1.77;;;18.00;1.00;;;;;;6268819;28;20049;-85
2023/11/06 11:03:42;;;;;;;9.30;2.30;;;18.20;1.00;;;;;;6274444;28;20061;-87
2023/11/06 11:06:44;;;;;;;7.80;1.70;;;18.00;1.00;;;;;;6261570;28;20056;-91
2023/11/06 11:09:49;;;;;;;7.45;1.45;;;17.40;1.00;;;;;;6257812;28;20151;-92
2023/11/06 11:12:52;;;;;;;5.35;1.23;;;17.40;1.00;;;;;;6255248;28;20056;-90
2023/11/06 11:15:55;;;;;;;6.28;1.30;;;17.20;1.00;;;;;;6277355;28;20485;-89
2023/11/06 11:18:57;;;;;;;4.88;1.20;;;17.30;1.00;;;;;;6248495;28;20515;-87
2023/11/06 11:21:59;;;;;;;7.18;1.48;;;17.40;1.00;;;;;;6275364;28;20090;-90
2023/11/06 11:25:04;;;;;;;6.20;1.20;;;17.40;1.00;;;;;;6256819;28;20404;-85
2023/11/06 11:28:06;;;;;;;5.57;1.20;;;17.70;1.00;;;;;;6253009;28;20051;-87
2023/11/06 11:31:07;;;;;;;5.72;1.30;;;18.00;1.00;;;;;;6275485;28;20049;-90
2023/11/06 11:34:09;;;;;;;6.30;1.50;;;18.30;1.00;;;;;;6278592;28;20059;-83
2023/11/06 11:37:12;;;;;;;8.02;1.35;;;18.50;1.00;;;;;;6278552;28;20162;-92
2023/11/06 11:40:14;;;;;;;7.47;1.40;;;18.90;1.00;;;;;;6253077;28;20060;-86
2023/11/06 11:43:15;;;;;;;5.60;1.35;;;18.50;1.00;;;;;;6272226;28;20049;-87
2023/11/06 11:46:17;;;;;;;7.55;1.60;;;17.90;1.00;;;;;;6274985;28;20056;-88
2023/11/06 11:49:19;;;;;;;3.90;1.30;;;18.00;1.00;;;;;;6230054;28;20061;-86
2023/11/06 11:52:20;;;;;;;5.22;1.33;;;18.10;1.00;;;;;;6271717;28;20053;-89
2023/11/06 11:55:22;;;;;;;6.47;1.20;;;17.70;1.00;;;;;;6274404;28;20057;-91
2023/11/06 11:58:24;;;;;;;9.45;1.70;;;17.50;1.00;;;;;;6267921;28;20056;-86
2023/11/06 12:01:26;;;;;;;3.83;1.20;;;18.00;1.00;;;;;;6268178;28;20060;-83
2023/11/06 12:04:27;;;;;;;6.35;1.27;;;18.40;1.00;;;;;;6269442;28;20687;-85
2023/11/06 12:07:31;;;;;;;9.15;1.20;;;18.50;1.00;;;;;;6272232;28;20602;-88
2023/11/06 12:10:33;;;;;;;5.75;1.60;;;18.70;1.00;;;;;;6252215;28;20085;-87
2023/11/06 12:13:35;;;;;;;5.35;1.20;;;18.50;1.00;;;;;;6268280;28;20049;-90
2023/11/06 12:16:36;;;;;;;4.50;1.10;;;18.10;1.00;;;;;;6272209;28;20059;-86
2023/11/06 12:19:38;;;;;;;6.78;1.23;;;18.30;1.00;;;;;;6270775;28;20045;-87
2023/11/06 12:22:40;;;;;;;5.95;1.40;;;18.30;1.00;;;;;;6253638;28;20473;-88
2023/11/06 12:25:42;;;;;;;5.65;1.15;;;18.50;1.00;;;;;;6275549;28;20053;-86
2023/11/06 12:28:45;;;;;;;5.57;1.20;;;18.10;1.00;;;;;;6257981;28;20045;-87
2023/11/06 12:31:47;;;;;;;5.07;1.30;;;18.10;1.00;;;;;;6261636;28;20056;-87
2023/11/06 12:34:48;;;;;;;4.15;1.20;;;18.20;1.00;;;;;;6249940;28;20057;-87
2023/11/06 12:37:50;;;;;;;5.97;1.20;;;18.40;1.00;;;;;;6263498;28;20055;-84
2023/11/06 12:40:52;;;;;;;5.03;1.50;;;18.70;1.00;;;;;;6248959;28;20049;-84
2023/11/06 12:43:53;;;;;;;5.38;1.38;;;18.30;1.00;;;;;;6267398;28;20059;-85
2023/11/06 12:46:55;;;;;;;5.13;1.33;;;18.50;1.00;;;;;;6255295;28;20053;-87
2023/11/06 12:50:06;;;;;;;5.82;1.17;;;18.30;1.00;;;;;;6247808;28;20053;-86
2023/11/06 12:53:08;;;;;;;6.90;0.93;;;17.50;1.00;;;;;;6263452;28;20534;-85
2023/11/06 12:56:12;;;;;;;5.65;1.30;;;17.40;1.00;;;;;;6254688;28;20057;-86
2023/11/06 12:59:14;;;;;;;6.05;1.33;;;17.50;1.00;;;;;;6251360;28;20048;-85
2023/11/06 13:02:16;;;;;;;4.78;0.90;;;17.20;1.00;;;;;;6254954;28;20053;-85
2023/11/06 13:05:20;;;;;;;6.43;1.60;;;17.20;1.00;;;;;;6255168;28;20044;-86
2023/11/06 13:08:22;;;;;;;5.78;1.67;;;17.70;1.00;;;;;;6255544;28;20064;-85
2023/11/06 13:11:24;;;;;;;5.30;1.20;;;17.70;1.00;;;;;;6255696;28;20055;-86
2023/11/06 13:14:38;;;;;;;7.32;1.33;;;17.00;1.00;;;;;;6243387;28;20071;-85
2023/11/06 13:17:41;;;;;;;6.85;1.40;;;16.40;1.00;;;;;;6254437;28;20057;-84
2023/11/06 13:20:51;;;;;;;4.93;0.93;;;15.50;1.00;;;;;;6272109;28;20140;-85
2023/11/06 13:23:56;;;;;;;9.35;1.25;;;14.90;1.00;;;;;;6255365;28;20049;-85
2023/11/06 13:26:58;;;;;;;8.25;1.13;;;14.40;1.00;;;;;;6254407;28;20077;-83
2023/11/06 13:30:00;;;;;;;9.35;1.42;;;14.00;1.00;;;;;;6250464;28;20049;-83
2023/11/06 13:33:07;;;;;;;7.75;1.48;;;14.10;1.00;;;;;;6254036;28;20065;-85
2023/11/06 13:36:11;;;;;;;7.18;1.83;;;14.80;1.00;;;;;;6228892;28;20144;-85
2023/11/06 13:39:14;;;;;;;6.95;1.40;;;14.90;1.00;;;;;;6270966;28;20053;-83
2023/11/06 13:42:15;;;;;;;7.32;1.15;;;15.70;1.00;;;;;;6252804;28;20057;-86
2023/11/06 13:45:17;;;;;;;5.53;1.58;;;16.00;1.00;;;;;;6251672;28;20053;-86
2023/11/06 13:48:19;;;;;;;5.97;1.52;;;16.20;1.00;;;;;;6253858;28;20076;-85
2023/11/06 13:51:25;;;;;;;4.70;1.25;;;15.80;1.00;;;;;;6253718;28;20562;-87
2023/11/06 13:54:34;;;;;;;6.63;1.17;;;15.10;1.00;;;;;;6245659;28;20140;-82
2023/11/06 13:57:39;;;;;;;5.70;1.35;;;15.00;1.00;;;;;;6271007;28;20134;-82
2023/11/06 14:00:45;;;;;;;3.78;0.90;;;15.00;1.00;;;;;;6268334;28;20048;-83
2023/11/06 14:03:48;;;;;;;5.03;1.20;;;14.80;1.00;;;;;;6271042;28;20141;-84
2023/11/06 14:06:54;;;;;;;10.25;1.13;;;14.60;1.00;;;;;;6249840;28;20046;-90
2023/11/06 14:09:56;;;;;;;4.53;1.00;;;14.70;1.00;;;;;;6249326;28;20501;-88
2023/11/06 14:12:58;;;;;;;7.85;1.50;;;14.80;1.00;;;;;;6272516;28;20045;-90
2023/11/06 14:16:00;;;;;;;9.18;1.20;;;14.60;1.00;;;;;;6264846;28;20057;-93
2023/11/06 14:19:01;;;;;;;7.45;1.02;;;14.80;1.00;;;;;;6265963;28;20057;-82
2023/11/06 14:22:07;;;;;;;7.32;0.93;;;14.70;1.00;;;;;;6273185;28;20053;-93
2023/11/06 14:25:09;;;;;;;5.90;0.93;;;14.40;1.00;;;;;;6234210;28;20069;-82
2023/11/06 14:28:11;;;;;;;8.25;1.20;;;14.00;1.00;;;;;;6269376;28;20055;-80
2023/11/06 14:31:13;;;;;;;7.20;1.48;;;13.80;1.00;;;;;;6269518;28;20053;-84
2023/11/06 14:34:15;;;;;;;7.68;1.35;;;13.80;1.00;;;;;;6243658;28;20049;-82
2023/11/06 14:37:17;;;;;;;7.72;1.50;;;13.80;1.00;;;;;;6252145;28;20439;-79
2023/11/06 14:40:18;;;;;;;6.63;1.40;;;13.80;1.00;;;;;;6269849;28;20136;-81
2023/11/06 14:43:22;;;;;;;7.72;1.35;;;13.70;1.00;;;;;;6271089;28;20049;-84
2023/11/06 14:46:24;;;;;;;7.82;1.45;;;13.70;1.00;;;;;;6252762;28;20487;-86
2023/11/06 14:49:26;;;;;;;8.40;1.70;;;13.70;1.00;;;;;;6251188;28;20523;-80
2023/11/06 14:52:27;;;;;;;7.38;1.70;;;13.50;1.00;;;;;;6269900;28;20420;-80
2023/11/06 14:55:29;;;;;;;9.65;1.77;;;13.40;1.00;;;;;;6250200;28;20061;-86
2023/11/06 14:58:31;;;;;;;10.23;1.80;;;13.30;1.00;;;;;;6265670;28;20053;-84
2023/11/06 15:01:32;;;;;;;7.07;1.30;;;13.10;1.00;;;;;;6280641;28;20061;-88
2023/11/06 15:04:35;;;;;;;9.68;2.00;;;13.00;1.00;;;;;;6260627;28;20049;-93
2023/11/06 15:07:38;;;;;;;11.07;1.80;;;12.90;1.00;;;;;;6279531;28;20052;-85
2023/11/06 15:10:41;;;;;;;8.52;1.80;;;12.80;1.00;;;;;;6262691;28;20060;-85
2023/11/06 15:13:43;;;;;;;11.40;1.83;;;12.80;1.00;;;;;;6261596;28;20053;-88
2023/11/06 15:16:45;;;;;;;7.57;1.60;;;12.80;1.00;;;;;;6257587;28;20056;-84
2023/11/06 15:19:46;;;;;;;8.98;1.83;;;12.80;1.00;;;;;;6272285;28;20067;-87
2023/11/06 15:22:48;;;;;;;6.38;1.60;;;12.70;1.00;;;;;;6270771;28;20056;-83
2023/11/06 15:25:50;;;;;;;12.40;1.75;;;12.70;1.00;;;;;;6254176;28;20059;-84
2023/11/06 15:28:52;;;;;;;6.80;1.90;;;12.70;1.00;;;;;;6269762;28;20052;-82
2023/11/06 15:31:55;;;;;;;9.88;1.77;;;12.50;1.00;;;;;;6255880;28;20060;-85
2023/11/06 15:34:56;;;;;;;10.27;1.98;;;12.50;1.00;;;;;;6262811;28;20076;-86
2023/11/06 15:37:58;;;;;;;9.43;1.77;;;12.50;1.00;;;;;;6254830;28;20515;-88
2023/11/06 15:41:00;;;;;;;8.80;1.80;;;12.40;1.00;;;;;;6260132;28;20053;-83
2023/11/06 15:44:02;;;;;;;12.07;2.00;;;12.50;1.00;;;;;;6250728;28;20084;-86
2023/11/06 15:47:03;;;;;;;8.80;1.40;;;12.50;1.60;;;;;;6262599;28;20041;-87
2023/11/06 15:50:06;;;;;;;12.25;1.83;;;12.50;2.30;;;;;;6264250;28;20036;-84
2023/11/06 15:53:11;;;;;;;9.82;1.95;;;12.70;1.00;;;;;;6268994;28;20086;-87
2023/11/06 15:56:13;;;;;;;7.70;1.75;;;12.70;1.00;;;;;;6283118;28;20638;-92